Time;durP1;ratioP1;P1;durP2;ratioP2;P2;SDS_P1;SDS_P2;PMS_P1;PMS_P2;Temp;Humidity;BMP_temperature;BMP_pressure;BME280_temperature;BME280_humidity;BME280_pressure;Samples;Min_cycle;Max_cycle;Signal;HPM_P1;HPM_P2
2021/07/01 00:02:17;;;;;;;9.53;8.83;;;;;;;22.38;100.00;95142.91;5028869;28;20387;-85
2021/07/01 00:04:44;;;;;;;9.77;8.87;;;;;;;22.38;100.00;95141.03;5028233;28;20219;-85
2021/07/01 00:07:12;;;;;;;9.47;8.57;;;;;;;22.30;100.00;95138.81;5028299;28;20203;-84
2021/07/01 00:09:39;;;;;;;10.20;9.40;;;;;;;22.33;100.00;95119.56;5028073;28;20667;-84
2021/07/01 00:12:07;;;;;;;9.70;8.87;;;;;;;22.23;100.00;95127.53;5027922;28;20298;-85
2021/07/01 00:14:35;;;;;;;9.90;9.10;;;;;;;22.13;100.00;95130.13;5027957;28;20285;-84
2021/07/01 00:17:04;;;;;;;9.83;9.03;;;;;;;22.09;100.00;95135.19;5028135;28;20251;-85
2021/07/01 00:19:32;;;;;;;9.60;8.80;;;;;;;22.00;100.00;95134.88;5028021;28;20203;-84
2021/07/01 00:21:59;;;;;;;10.63;9.67;;;;;;;22.07;100.00;95129.31;5030230;28;20620;-84
2021/07/01 00:24:26;;;;;;;10.73;9.70;;;;;;;22.12;100.00;95134.69;5031163;28;20609;-85
2021/07/01 00:26:54;;;;;;;8.87;8.27;;;;;;;22.22;100.00;95117.91;5031336;28;20671;-85
2021/07/01 00:29:21;;;;;;;9.13;8.43;;;;;;;22.12;100.00;95115.16;5031022;28;20342;-85
2021/07/01 00:31:48;;;;;;;9.30;8.23;;;;;;;22.08;100.00;95125.56;5031668;28;20281;-85
2021/07/01 00:34:17;;;;;;;10.63;9.63;;;;;;;21.99;100.00;95129.78;5031432;28;20205;-84
2021/07/01 00:36:44;;;;;;;10.00;9.20;;;;;;;21.87;100.00;95111.25;5031266;28;20620;-85
2021/07/01 00:39:12;;;;;;;10.30;9.20;;;;;;;21.81;100.00;95112.28;5031323;28;20199;-85
2021/07/01 00:41:40;;;;;;;11.63;10.50;;;;;;;21.70;100.00;95126.66;5031191;28;20226;-85
2021/07/01 00:44:07;;;;;;;11.47;10.47;;;;;;;21.77;100.00;95119.22;5030868;28;20226;-84
2021/07/01 00:46:34;;;;;;;10.27;9.47;;;;;;;21.91;100.00;95122.25;5031440;28;20233;-85
2021/07/01 00:49:02;;;;;;;10.83;9.83;;;;;;;22.11;100.00;95113.56;5030983;28;20683;-85
2021/07/01 00:51:31;;;;;;;10.90;9.80;;;;;;;21.91;100.00;95114.22;5031063;28;20195;-85
2021/07/01 00:53:58;;;;;;;10.87;9.97;;;;;;;21.94;100.00;95119.06;5030589;28;20262;-84
2021/07/01 00:56:26;;;;;;;10.87;9.87;;;;;;;21.97;100.00;95122.03;5031286;28;20281;-85
2021/07/01 00:58:56;;;;;;;9.80;8.87;;;;;;;22.01;100.00;95123.13;5030883;28;20198;-85
2021/07/01 01:01:23;;;;;;;9.90;8.93;;;;;;;21.99;100.00;95130.59;5030594;28;20199;-84
2021/07/01 01:03:50;;;;;;;10.00;9.20;;;;;;;21.91;100.00;95123.03;5030526;28;20234;-85
2021/07/01 01:06:18;;;;;;;10.50;9.53;;;;;;;21.80;100.00;95124.84;5030846;28;20238;-84
2021/07/01 01:08:47;;;;;;;10.60;9.53;;;;;;;21.78;100.00;95136.84;5030889;28;20199;-85
2021/07/01 01:11:14;;;;;;;9.90;9.20;;;;;;;21.60;100.00;95140.75;5030451;28;20230;-84
2021/07/01 01:13:44;;;;;;;8.53;7.87;;;;;;;21.51;100.00;95140.41;5030811;28;20194;-84
2021/07/01 01:16:11;;;;;;;9.60;8.83;;;;;;;21.58;100.00;95134.84;5030510;28;20194;-84
2021/07/01 01:18:39;;;;;;;10.83;9.83;;;;;;;21.52;100.00;95131.31;5030556;28;20199;-84
2021/07/01 01:21:11;;;;;;;11.53;10.33;;;;;;;21.53;100.00;95127.59;5030493;28;20287;-84
2021/07/01 01:23:40;;;;;;;10.43;9.50;;;;;;;21.72;100.00;95138.72;5030118;28;20226;-84
2021/07/01 01:26:07;;;;;;;14.47;9.33;;;;;;;21.78;100.00;95131.50;5030467;28;20203;-84
2021/07/01 01:28:35;;;;;;;10.93;9.50;;;;;;;21.49;100.00;95126.47;5030316;28;20206;-84
2021/07/01 01:31:03;;;;;;;10.93;9.93;;;;;;;21.38;100.00;95126.66;5030383;28;20198;-85
2021/07/01 01:33:30;;;;;;;10.77;9.80;;;;;;;21.49;100.00;95121.13;5029986;28;20202;-85
2021/07/01 01:35:58;;;;;;;10.77;9.67;;;;;;;21.54;100.00;95123.03;5030092;28;20205;-85
2021/07/01 01:38:25;;;;;;;10.50;9.70;;;;;;;21.54;100.00;95123.84;5030441;28;20267;-85
2021/07/01 01:40:54;;;;;;;10.53;9.73;;;;;;;21.60;100.00;95125.50;5030122;28;20252;-85
2021/07/01 01:43:23;;;;;;;11.23;10.13;;;;;;;21.52;100.00;95120.63;5030488;28;20252;-85
2021/07/01 01:45:51;;;;;;;11.33;10.17;;;;;;;21.51;100.00;95119.03;5029809;28;20219;-85
2021/07/01 01:48:19;;;;;;;10.20;9.43;;;;;;;21.71;100.00;95114.88;5030142;28;20198;-85
2021/07/01 01:50:46;;;;;;;9.80;8.90;;;;;;;21.51;100.00;95132.41;5029984;28;20283;-84
2021/07/01 01:53:14;;;;;;;10.40;9.50;;;;;;;21.18;100.00;95140.59;5029661;28;20271;-84
2021/07/01 01:55:41;;;;;;;10.03;9.03;;;;;;;21.06;100.00;95144.25;5030255;28;20201;-84
2021/07/01 01:58:10;;;;;;;11.30;9.83;;;;;;;21.34;100.00;95145.06;5029956;28;20199;-84
2021/07/01 02:00:38;;;;;;;10.37;9.33;;;;;;;21.44;100.00;95141.66;5029897;28;20267;-84
2021/07/01 02:03:05;;;;;;;11.53;10.33;;;;;;;21.39;100.00;95138.97;5029940;28;20671;-85
2021/07/01 02:05:34;;;;;;;10.73;9.93;;;;;;;21.19;100.00;95140.34;5029251;28;20230;-84
2021/07/01 02:08:01;;;;;;;10.47;9.57;;;;;;;21.26;100.00;95130.25;5029594;28;20230;-84
2021/07/01 02:10:33;;;;;;;11.63;10.33;;;;;;;21.37;100.00;95144.53;5029343;28;20203;-84
2021/07/01 02:13:00;;;;;;;11.77;10.17;;;;;;;21.38;100.00;95140.84;5029827;28;20251;-84
2021/07/01 02:15:29;;;;;;;11.07;10.20;;;;;;;21.21;100.00;95135.56;5029573;28;20198;-83
2021/07/01 02:17:57;;;;;;;11.53;10.67;;;;;;;20.96;100.00;95146.81;5029450;28;20289;-84
2021/07/01 02:20:28;;;;;;;11.20;10.10;;;;;;;21.17;100.00;95149.69;5029347;28;20191;-84
2021/07/01 02:22:56;;;;;;;11.77;10.67;;;;;;;21.21;100.00;95148.94;5029705;28;20187;-84
2021/07/01 02:25:23;;;;;;;11.43;10.33;;;;;;;21.26;100.00;95148.16;5029409;28;20752;-85
2021/07/01 02:27:51;;;;;;;15.23;11.83;;;;;;;21.22;100.00;95163.88;5029563;28;20198;-84
2021/07/01 02:30:19;;;;;;;10.90;9.90;;;;;;;21.08;100.00;95168.81;5029526;28;20252;-84
2021/07/01 02:32:48;;;;;;;10.07;9.23;;;;;;;20.96;100.00;95181.53;5029442;28;20294;-84
2021/07/01 02:35:15;;;;;;;11.33;10.20;;;;;;;20.98;100.00;95187.41;5029294;28;20241;-85
2021/07/01 02:37:43;;;;;;;11.87;10.70;;;;;;;20.95;100.00;95193.25;5029251;28;20294;-84
2021/07/01 02:40:14;;;;;;;12.37;10.13;;;;;;;21.12;100.00;95203.84;5029512;28;20281;-84
2021/07/01 02:42:41;;;;;;;12.27;11.07;;;;;;;21.19;100.00;95206.34;5029412;28;20244;-84
2021/07/01 02:45:10;;;;;;;11.73;10.53;;;;;;;21.09;100.00;95209.69;5026679;28;20226;-85
2021/07/01 02:47:37;;;;;;;10.27;9.27;;;;;;;21.14;100.00;95209.78;5027214;28;20289;-85
2021/07/01 02:50:08;;;;;;;10.27;9.37;;;;;;;21.07;100.00;95195.81;5028802;28;20194;-84
2021/07/01 02:52:35;;;;;;;11.87;10.73;;;;;;;21.14;100.00;95194.53;5029071;28;20272;-84
2021/07/01 02:55:03;;;;;;;10.60;9.43;;;;;;;21.15;100.00;95203.34;5028735;28;20275;-84
2021/07/01 02:57:30;;;;;;;12.07;10.90;;;;;;;21.07;100.00;95209.97;5028973;28;20197;-84
2021/07/01 02:59:58;;;;;;;12.17;11.17;;;;;;;21.02;100.00;95215.22;5028891;28;20207;-83
2021/07/01 03:02:25;;;;;;;11.93;11.03;;;;;;;21.00;100.00;95220.03;5028994;28;20209;-84
2021/07/01 03:04:52;;;;;;;11.47;10.27;;;;;;;21.01;100.00;95221.63;5028535;28;20223;-84
2021/07/01 03:07:21;;;;;;;16.20;11.10;;;;;;;21.12;100.00;95226.03;5028874;28;20255;-85
2021/07/01 03:09:48;;;;;;;11.03;10.03;;;;;;;20.94;100.00;95226.38;5028267;28;20725;-84
2021/07/01 03:12:16;;;;;;;11.60;10.60;;;;;;;21.16;100.00;95222.88;5028709;28;20203;-85
2021/07/01 03:14:43;;;;;;;11.43;10.43;;;;;;;21.04;100.00;95233.69;5028707;28;20199;-84
2021/07/01 03:17:10;;;;;;;12.17;11.07;;;;;;;21.07;100.00;95238.53;5028805;28;20315;-85
2021/07/01 03:19:37;;;;;;;9.87;9.10;;;;;;;21.19;100.00;95231.19;5028627;28;20301;-83
2021/07/01 03:22:05;;;;;;;11.60;10.33;;;;;;;21.23;100.00;95226.94;5027924;28;20687;-82
2021/07/01 03:24:34;;;;;;;12.40;10.53;;;;;;;21.22;100.00;95232.56;5026316;28;20283;-83
2021/07/01 03:27:03;;;;;;;12.17;10.60;;;;;;;21.20;100.00;95230.16;5028527;28;20203;-83
2021/07/01 03:29:31;;;;;;;11.27;10.03;;;;;;;21.20;100.00;95229.31;5027407;28;20205;-82
2021/07/01 03:31:58;;;;;;;12.90;10.17;;;;;;;20.91;100.00;95242.88;5027557;28;20203;-83
2021/07/01 03:34:25;;;;;;;11.20;10.30;;;;;;;20.78;100.00;95257.44;5027677;28;20195;-83
2021/07/01 03:36:53;;;;;;;11.63;10.10;;;;;;;20.95;100.00;95273.38;5027146;28;20198;-82
2021/07/01 03:39:20;;;;;;;11.00;10.10;;;;;;;21.01;100.00;95275.06;5027155;28;20247;-82
2021/07/01 03:41:49;;;;;;;11.73;10.73;;;;;;;20.87;100.00;95281.84;5027366;28;20199;-82
2021/07/01 03:44:17;;;;;;;11.00;10.00;;;;;;;20.86;100.00;95293.56;5027206;28;20251;-82
2021/07/01 03:46:44;;;;;;;10.47;9.47;;;;;;;20.94;100.00;95303.81;5027249;28;20264;-82
2021/07/01 03:49:12;;;;;;;10.57;9.43;;;;;;;21.03;100.00;95289.00;5027616;28;20199;-83
2021/07/01 03:51:40;;;;;;;10.60;9.63;;;;;;;21.04;100.00;95292.47;5027049;28;20707;-83
2021/07/01 03:54:07;;;;;;;13.40;10.63;;;;;;;21.13;100.00;95282.97;5026504;28;20338;-82
2021/07/01 03:56:41;;;;;;;11.97;10.73;;;;;;;21.33;100.00;95269.81;5030367;28;20202;-83
2021/07/01 03:59:12;;;;;;;13.83;12.53;;;;;;;21.32;100.00;95273.56;5030985;28;20190;-83
2021/07/01 04:01:40;;;;;;;18.97;13.30;;;;;;;21.29;100.00;95275.94;5032076;28;20272;-83
2021/07/01 04:04:07;;;;;;;12.37;11.37;;;;;;;21.24;100.00;95279.38;5031465;28;20678;-82
2021/07/01 04:06:35;;;;;;;12.87;11.67;;;;;;;21.20;100.00;95290.78;5031952;28;20223;-84
2021/07/01 04:09:05;;;;;;;12.10;11.00;;;;;;;21.22;100.00;95288.69;5031596;28;20186;-83
2021/07/01 04:11:32;;;;;;;13.23;10.80;;;;;;;21.18;100.00;95284.91;5031553;28;20247;-83
2021/07/01 04:14:00;;;;;;;12.80;11.50;;;;;;;21.25;100.00;95272.16;5031394;28;20232;-84
2021/07/01 04:16:29;;;;;;;12.97;10.27;;;;;;;21.24;100.00;95294.59;5031370;28;20199;-83
2021/07/01 04:18:57;;;;;;;12.30;11.03;;;;;;;21.19;100.00;95294.50;5031432;28;20195;-84
2021/07/01 04:21:27;;;;;;;10.70;9.73;;;;;;;21.36;100.00;95281.91;5031678;28;20230;-84
2021/07/01 04:23:55;;;;;;;11.83;10.83;;;;;;;21.28;100.00;95274.31;5031339;28;20195;-84
2021/07/01 04:26:23;;;;;;;12.27;10.87;;;;;;;21.38;100.00;95279.81;5031352;28;20227;-84
2021/07/01 04:28:51;;;;;;;12.20;11.00;;;;;;;21.44;100.00;95288.69;5031207;28;20252;-84
2021/07/01 04:31:19;;;;;;;11.47;10.37;;;;;;;21.41;100.00;95306.06;5031071;28;20198;-84
2021/07/01 04:33:48;;;;;;;11.97;10.80;;;;;;;21.52;100.00;95317.66;5031172;28;20202;-83
2021/07/01 04:36:15;;;;;;;11.33;10.10;;;;;;;21.47;100.00;95313.03;5031051;28;20241;-84
2021/07/01 04:38:43;;;;;;;10.43;9.53;;;;;;;21.41;100.00;95297.22;5031168;28;20649;-83
2021/07/01 04:41:10;;;;;;;15.40;12.07;;;;;;;21.40;100.00;95293.72;5031091;28;20644;-84
2021/07/01 04:43:37;;;;;;;12.30;11.13;;;;;;;21.50;100.00;95299.19;5030752;28;20630;-84
2021/07/01 04:46:05;;;;;;;13.43;10.57;;;;;;;21.55;100.00;95312.63;5031547;28;20245;-84
2021/07/01 04:48:32;;;;;;;11.83;10.73;;;;;;;21.72;100.00;95306.38;5031079;28;20199;-84
2021/07/01 04:51:01;;;;;;;12.60;11.40;;;;;;;21.76;100.00;95304.81;5030911;28;20242;-84
2021/07/01 04:53:28;;;;;;;12.13;11.17;;;;;;;21.87;100.00;95314.56;5030616;28;20289;-84
2021/07/01 04:55:55;;;;;;;12.80;11.70;;;;;;;21.87;100.00;95317.22;5031196;28;20282;-84
2021/07/01 04:58:23;;;;;;;12.47;11.17;;;;;;;21.93;100.00;95305.53;5030926;28;20245;-84
2021/07/01 05:00:50;;;;;;;13.03;11.93;;;;;;;21.96;100.00;95304.19;5030937;28;20247;-84
2021/07/01 05:03:17;;;;;;;12.60;11.53;;;;;;;22.09;100.00;95290.38;5031008;28;20230;-84
2021/07/01 05:05:45;;;;;;;13.30;12.17;;;;;;;22.13;100.00;95280.00;5030966;28;20246;-84
2021/07/01 05:08:13;;;;;;;15.10;13.63;;;;;;;22.15;100.00;95293.97;5029977;28;20245;-84
2021/07/01 05:10:41;;;;;;;14.47;13.07;;;;;;;22.12;100.00;95305.13;5030359;28;20294;-84
2021/07/01 05:13:08;;;;;;;14.37;13.03;;;;;;;22.05;100.00;95316.84;5031130;28;20205;-84
2021/07/01 05:15:35;;;;;;;13.60;12.40;;;;;;;22.19;100.00;95322.63;5030675;28;20215;-84
2021/07/01 05:18:03;;;;;;;13.30;12.10;;;;;;;22.30;100.00;95318.16;5030666;28;20203;-84
2021/07/01 05:20:31;;;;;;;14.00;12.70;;;;;;;22.51;100.00;95319.97;5030499;28;20199;-84
2021/07/01 05:22:58;;;;;;;13.87;12.67;;;;;;;22.67;100.00;95310.16;5030336;28;20294;-84
2021/07/01 05:25:27;;;;;;;15.17;13.77;;;;;;;22.77;100.00;95282.63;5030341;28;20219;-84
2021/07/01 05:27:55;;;;;;;13.00;11.80;;;;;;;22.81;100.00;95278.34;5030568;28;20753;-84
2021/07/01 05:30:25;;;;;;;12.13;11.13;;;;;;;22.93;100.00;95279.00;5030071;28;20285;-84
2021/07/01 05:32:52;;;;;;;12.20;11.20;;;;;;;23.09;100.00;95281.75;5030656;28;20304;-84
2021/07/01 05:35:19;;;;;;;13.00;11.90;;;;;;;23.07;100.00;95278.50;5030449;28;20195;-84
2021/07/01 05:37:47;;;;;;;13.63;12.37;;;;;;;23.23;100.00;95278.31;5030639;28;20556;-84
2021/07/01 05:40:17;;;;;;;12.83;11.63;;;;;;;23.43;100.00;95272.22;5030040;28;20199;-84
2021/07/01 05:42:46;;;;;;;13.67;12.57;;;;;;;23.57;100.00;95261.78;5030228;28;20194;-85
2021/07/01 05:45:14;;;;;;;12.70;11.60;;;;;;;23.78;100.00;95257.31;5030007;28;20223;-84
2021/07/01 05:47:42;;;;;;;12.30;11.30;;;;;;;23.92;100.00;95252.22;5029986;28;20281;-84
2021/07/01 05:50:11;;;;;;;12.23;11.13;;;;;;;24.07;100.00;95238.00;5030091;28;20289;-84
2021/07/01 05:52:41;;;;;;;12.13;10.93;;;;;;;24.18;100.00;95240.41;5029125;28;20294;-84
2021/07/01 05:55:10;;;;;;;12.07;10.97;;;;;;;24.31;100.00;95232.88;5028514;28;20258;-85
2021/07/01 05:57:37;;;;;;;11.13;10.13;;;;;;;24.54;100.00;95237.72;5030067;28;20204;-84
2021/07/01 06:00:09;;;;;;;12.93;11.73;;;;;;;24.56;100.00;95213.25;5029905;28;20206;-84
2021/07/01 06:02:36;;;;;;;12.30;11.00;;;;;;;24.66;100.00;95214.06;5030303;28;20273;-83
2021/07/01 06:05:05;;;;;;;11.40;10.57;;;;;;;24.78;100.00;95216.44;5029893;27;20195;-85
2021/07/01 06:07:33;;;;;;;11.30;10.37;;;;;;;24.97;100.00;95245.38;5029914;28;20261;-85
2021/07/01 06:10:04;;;;;;;11.57;10.53;;;;;;;25.29;100.00;95247.72;5029520;28;20195;-84
2021/07/01 06:12:34;;;;;;;10.40;9.60;;;;;;;25.17;100.00;95239.16;5030100;28;20186;-85
2021/07/01 06:15:04;;;;;;;12.83;11.53;;;;;;;25.41;100.00;95252.78;5030327;28;20252;-85
2021/07/01 06:17:34;;;;;;;11.23;10.23;;;;;;;25.55;100.00;95259.94;5030036;28;20267;-85
2021/07/01 06:20:02;;;;;;;13.57;10.27;;;;;;;25.65;100.00;95250.22;5029623;28;20213;-85
2021/07/01 06:22:32;;;;;;;11.33;10.33;;;;;;;25.65;100.00;95252.91;5029455;28;20199;-85
2021/07/01 06:24:59;;;;;;;10.90;9.90;;;;;;;25.70;100.00;95296.75;5029492;28;20556;-85
2021/07/01 06:27:33;;;;;;;11.47;10.47;;;;;;;25.96;100.00;95300.09;5030038;28;20191;-85
2021/07/01 06:30:03;;;;;;;12.45;11.30;;;;;;;26.01;100.00;95280.41;5029350;28;20694;-85
2021/07/01 06:32:36;;;;;;;12.88;11.23;;;;;;;25.98;100.00;95313.28;5029539;28;20198;-85
2021/07/01 06:35:04;;;;;;;13.20;10.93;;;;;;;26.28;100.00;95323.84;5029728;28;20187;-84
2021/07/01 06:37:34;;;;;;;11.00;9.77;;;;;;;26.20;100.00;95348.69;5029475;28;20268;-85
2021/07/01 06:40:04;;;;;;;12.27;11.07;;;;;;;26.38;100.00;95381.44;5029146;28;20671;-85
2021/07/01 06:42:34;;;;;;;11.15;10.25;;;;;;;26.31;100.00;95392.53;5029376;28;20198;-85
2021/07/01 06:45:04;;;;;;;12.00;10.90;;;;;;;26.61;100.00;95402.31;5029224;28;20244;-85
2021/07/01 06:47:33;;;;;;;10.80;9.70;;;;;;;26.22;100.00;95410.34;5029576;28;20612;-85
2021/07/01 06:50:05;;;;;;;10.98;9.90;;;;;;;26.56;100.00;95395.06;5028720;28;20298;-85
2021/07/01 06:52:33;;;;;;;12.23;9.98;;;;;;;26.91;100.00;95398.56;5029286;28;20223;-86
2021/07/01 06:55:00;;;;;;;11.88;10.88;;;;;;;26.72;100.00;95433.50;5029056;28;20230;-86
2021/07/01 06:57:29;;;;;;;11.20;10.20;;;;;;;26.89;100.00;95416.13;5029490;28;20255;-85
2021/07/01 06:59:57;;;;;;;12.30;11.20;;;;;;;27.07;100.00;95420.81;5028817;28;20199;-86
2021/07/01 07:02:25;;;;;;;10.80;9.70;;;;;;;27.32;100.00;95429.78;5029148;28;20289;-85
2021/07/01 07:04:54;;;;;;;10.57;9.65;;;;;;;27.34;100.00;95441.91;5029272;28;20659;-85
2021/07/01 07:07:22;;;;;;;10.75;9.73;;;;;;;27.49;100.00;95441.72;5028973;28;20313;-85
2021/07/01 07:09:50;;;;;;;11.50;10.32;;;;;;;27.56;100.00;95437.88;5028731;28;20199;-85
2021/07/01 07:12:17;;;;;;;10.27;9.27;;;;;;;27.62;100.00;95463.75;5029009;28;20248;-85
2021/07/01 07:14:44;;;;;;;9.00;8.20;;;;;;;27.81;100.00;95464.63;5028849;28;20195;-85
2021/07/01 07:17:13;;;;;;;10.20;9.40;;;;;;;28.04;100.00;95473.03;5028988;28;20229;-85
2021/07/01 07:19:45;;;;;;;11.05;9.18;;;;;;;28.01;100.00;95514.91;5028919;28;20230;-86
2021/07/01 07:22:17;;;;;;;9.68;8.57;;;;;;;28.05;100.00;95496.22;5028928;28;20639;-86
2021/07/01 07:24:52;;;;;;;9.10;8.35;;;;;;;28.02;100.00;95488.69;5028790;28;20191;-85
2021/07/01 07:27:27;;;;;;;9.77;8.93;;;;;;;27.77;100.00;95495.19;5028645;28;20206;-85
2021/07/01 07:29:55;;;;;;;10.38;8.73;;;;;;;27.96;100.00;95523.09;5029298;28;20183;-85
2021/07/01 07:32:25;;;;;;;9.70;8.52;;;;;;;28.02;100.00;95567.84;5032591;27;20206;-86
2021/07/01 07:34:53;;;;;;;11.07;9.90;;;;;;;28.12;100.00;95531.81;5032123;28;20638;-86
2021/07/01 07:37:22;;;;;;;9.65;8.82;;;;;;;28.06;100.00;95551.88;5032058;28;20241;-86
2021/07/01 07:39:50;;;;;;;9.80;8.90;;;;;;;28.31;100.00;95538.06;5032084;28;20202;-85
2021/07/01 07:42:19;;;;;;;10.02;9.00;;;;;;;28.43;100.00;95551.19;5032557;28;20202;-86
2021/07/01 07:44:46;;;;;;;9.85;9.02;;;;;;;28.37;100.00;95522.59;5032038;28;20666;-86
2021/07/01 07:47:15;;;;;;;8.88;8.18;;;;;;;28.43;100.00;95556.59;5032130;28;20218;-86
2021/07/01 07:49:43;;;;;;;10.38;9.50;;;;;;;28.70;100.00;95530.84;5031923;28;20686;-85
2021/07/01 07:52:12;;;;;;;10.13;8.70;;;;;;;28.36;100.00;95572.31;5032034;28;20242;-86
2021/07/01 07:54:48;;;;;;;10.20;9.10;;;;;;;28.52;100.00;95562.97;5031661;28;20757;-85
2021/07/01 07:57:16;;;;;;;10.50;8.60;;;;;;;28.56;100.00;95557.78;5032007;27;20260;-86
2021/07/01 07:59:50;;;;;;;8.95;8.13;;;;;;;28.59;100.00;95668.88;5031799;28;20195;-85
2021/07/01 08:02:34;;;;;;;9.60;8.65;;;;;;;28.66;100.00;95649.59;5031952;28;20226;-86
2021/07/01 08:05:03;;;;;;;9.15;8.25;;;;;;;28.83;100.00;95633.69;5032037;28;20183;-85
2021/07/01 08:07:32;;;;;;;11.70;8.80;;;;;;;28.89;100.00;95667.72;5031745;28;20227;-85
2021/07/01 08:10:03;;;;;;;9.73;8.82;;;;;;;29.16;100.00;95669.00;5031715;28;20198;-86
2021/07/01 08:12:32;;;;;;;10.50;8.63;;;;;;;29.33;100.00;95673.91;5032023;28;20692;-86
2021/07/01 08:15:00;;;;;;;8.98;8.20;;;;;;;28.97;100.00;95677.06;5031525;28;20203;-85
2021/07/01 08:17:28;;;;;;;10.65;9.63;;;;;;;28.64;100.00;95695.81;5031704;28;20202;-85
2021/07/01 08:19:57;;;;;;;10.25;9.30;;;;;;;28.84;100.00;95672.38;5031392;27;20278;-85
2021/07/01 08:22:24;;;;;;;10.25;8.57;;;;;;;28.85;100.00;95699.13;5031762;28;20290;-86
2021/07/01 08:24:51;;;;;;;9.57;8.68;;;;;;;29.10;100.00;95679.09;5031479;28;20204;-86
2021/07/01 08:27:22;;;;;;;9.55;7.78;;;;;;;29.20;100.00;95674.63;5031499;28;20226;-86
2021/07/01 08:29:49;;;;;;;12.30;9.95;;;;;;;29.31;100.00;95659.88;5031077;28;20738;-86
2021/07/01 08:32:18;;;;;;;9.65;8.80;;;;;;;29.35;100.00;95693.38;5031535;28;20228;-86
2021/07/01 08:34:47;;;;;;;12.82;10.13;;;;;;;28.97;100.00;95698.72;5031169;28;20263;-86
2021/07/01 08:37:16;;;;;;;9.75;8.73;;;;;;;28.98;100.00;95678.66;5031405;28;20195;-86
2021/07/01 08:39:45;;;;;;;10.68;9.57;;;;;;;29.34;100.00;95689.06;5031386;28;20524;-86
2021/07/01 08:42:15;;;;;;;11.10;10.10;;;;;;;29.39;100.00;95738.50;5030030;28;20205;-87
2021/07/01 08:44:46;;;;;;;10.82;9.82;;;;;;;29.49;100.00;95721.34;5031294;28;20734;-86
2021/07/01 08:47:18;;;;;;;11.48;9.93;;;;;;;29.64;100.00;95700.56;5031883;28;20299;-86
2021/07/01 08:49:54;;;;;;;12.63;9.25;;;;;;;29.43;100.00;95722.50;5031176;28;20667;-85
2021/07/01 08:52:26;;;;;;;10.18;9.30;;;;;;;29.46;100.00;95732.75;5031237;28;20259;-86
2021/07/01 08:54:58;;;;;;;10.13;9.20;;;;;;;29.55;100.00;95725.59;5030894;28;20223;-86
2021/07/01 08:57:29;;;;;;;11.55;9.77;;;;;;;29.66;100.00;95704.59;5031165;28;20175;-86
2021/07/01 09:00:02;;;;;;;12.98;10.77;;;;;;;29.83;100.00;95745.53;5030916;28;20219;-86
2021/07/01 09:02:37;;;;;;;11.20;9.13;;;;;;;29.83;100.00;95747.44;5030822;28;20184;-86
2021/07/01 09:05:10;;;;;;;11.20;9.95;;;;;;;29.89;100.00;95754.34;5031163;28;20187;-86
2021/07/01 09:07:39;;;;;;;10.23;9.32;;;;;;;29.96;100.00;95751.28;5030917;28;20706;-86
2021/07/01 09:10:12;;;;;;;10.70;9.70;;;;;;;29.90;100.00;95764.13;5031146;28;20556;-86
2021/07/01 09:12:43;;;;;;;10.55;9.65;;;;;;;30.12;100.00;95757.28;5030906;28;20261;-86
2021/07/01 09:15:13;;;;;;;12.07;9.90;;;;;;;29.98;100.00;95741.75;5030637;28;20187;-86
2021/07/01 09:17:47;;;;;;;10.48;9.40;;;;;;;30.17;100.00;95774.28;5030994;28;20579;-86
2021/07/01 09:20:20;;;;;;;13.48;10.02;;;;;;;30.28;100.00;95743.22;5030853;28;20187;-86
2021/07/01 09:22:48;;;;;;;10.93;9.82;;;;;;;30.25;100.00;95765.50;5030547;28;20270;-86
2021/07/01 09:25:16;;;;;;;12.43;10.38;;;;;;;30.21;100.00;95747.41;5030577;28;20755;-86
2021/07/01 09:27:46;;;;;;;11.10;10.02;;;;;;;30.65;100.00;95762.38;5030495;28;20295;-86
2021/07/01 09:30:17;;;;;;;10.50;9.40;;;;;;;30.36;100.00;95785.09;5030344;28;20293;-86
2021/07/01 09:32:45;;;;;;;15.40;10.80;;;;;;;30.15;100.00;95786.50;5030568;28;20244;-87
2021/07/01 09:35:13;;;;;;;10.85;9.85;;;;;;;30.36;100.00;95760.69;5030293;28;20678;-87
2021/07/01 09:37:42;;;;;;;13.07;9.77;;;;;;;30.42;100.00;95759.50;5030802;28;20571;-86
2021/07/01 09:40:12;;;;;;;13.60;9.93;;;;;;;30.54;100.00;95773.38;5030487;28;20256;-86
2021/07/01 09:42:40;;;;;;;11.02;10.07;;;;;;;30.86;100.00;95776.38;5030317;28;20238;-86
2021/07/01 09:45:11;;;;;;;10.52;9.45;;;;;;;31.03;100.00;95768.47;5030180;28;20234;-87
2021/07/01 09:47:44;;;;;;;11.55;9.48;;;;;;;30.90;100.00;95791.78;5030263;28;20768;-86
2021/07/01 09:50:12;;;;;;;12.00;8.90;;;;;;;31.12;100.00;95782.16;5030018;28;20243;-86
2021/07/01 09:52:41;;;;;;;10.43;9.43;;;;;;;31.34;100.00;95795.84;5029861;28;20243;-86
2021/07/01 09:55:11;;;;;;;11.43;9.02;;;;;;;31.61;100.00;95772.47;5029924;28;20238;-86
2021/07/01 09:57:40;;;;;;;10.52;9.07;;;;;;;31.41;100.00;95819.88;5030189;28;20728;-86
2021/07/01 10:00:09;;;;;;;10.40;9.27;;;;;;;31.65;100.00;95809.59;5029813;28;20736;-86
2021/07/01 10:02:37;;;;;;;10.75;9.52;;;;;;;31.75;100.00;95767.81;5030332;28;20209;-86
2021/07/01 10:05:09;;;;;;;13.27;11.55;;;;;;;31.89;100.00;95778.66;5029962;28;20202;-87
2021/07/01 10:07:49;;;;;;;11.07;9.90;;;;;;;32.14;100.00;95769.13;5030013;28;20210;-86
2021/07/01 10:10:17;;;;;;;9.88;8.50;;;;;;;31.93;100.00;95821.22;5029844;28;20222;-87
2021/07/01 10:12:52;;;;;;;10.52;9.63;;;;;;;31.81;100.00;95828.28;5029763;28;20195;-86
2021/07/01 10:15:30;;;;;;;9.43;8.32;;;;;;;32.00;100.00;95831.69;5029558;28;20592;-86
2021/07/01 10:18:09;;;;;;;10.25;8.65;;;;;;;32.26;100.00;95804.72;5029751;28;20244;-86
2021/07/01 10:20:40;;;;;;;9.80;8.85;;;;;;;32.16;100.00;95841.09;5029618;28;20199;-86
2021/07/01 10:23:20;;;;;;;12.55;8.77;;;;;;;32.19;100.00;95848.66;5029975;28;20218;-87
2021/07/01 10:25:48;;;;;;;11.25;8.80;;;;;;;32.24;100.00;95830.59;5029863;28;20654;-86
2021/07/01 10:28:17;;;;;;;12.93;9.23;;;;;;;32.35;100.00;95829.25;5029707;28;20592;-86
2021/07/01 10:30:56;;;;;;;9.00;8.20;;;;;;;32.13;100.00;95840.91;5029548;28;20206;-86
2021/07/01 10:33:25;;;;;;;15.52;8.32;;;;;;;31.91;100.00;95826.19;5029805;28;20206;-87
2021/07/01 10:35:56;;;;;;;9.90;8.93;;;;;;;32.02;100.00;95831.38;5029499;28;20275;-87
2021/07/01 10:38:24;;;;;;;10.90;8.50;;;;;;;32.09;100.00;95843.44;5029554;28;20277;-86
2021/07/01 10:40:53;;;;;;;9.35;8.52;;;;;;;32.12;100.00;95840.13;5029097;28;20238;-86
2021/07/01 10:43:22;;;;;;;13.00;8.95;;;;;;;32.12;100.00;95850.19;5029450;28;20198;-87
2021/07/01 10:45:55;;;;;;;11.57;7.75;;;;;;;32.08;100.00;95835.59;5029336;28;20336;-87
2021/07/01 10:48:23;;;;;;;10.68;8.20;;;;;;;32.06;100.00;95859.56;5029368;28;20264;-87
2021/07/01 10:50:52;;;;;;;11.63;8.13;;;;;;;32.26;100.00;95861.03;5029226;28;20241;-87
2021/07/01 10:53:29;;;;;;;9.50;7.80;;;;;;;32.48;100.00;95842.03;5029105;28;20202;-86
2021/07/01 10:56:01;;;;;;;17.23;8.70;;;;;;;32.35;100.00;95854.56;5029239;28;20266;-86
2021/07/01 10:58:29;;;;;;;9.73;7.63;;;;;;;32.50;100.00;95839.81;5029384;28;20195;-87
2021/07/01 11:00:59;;;;;;;8.73;7.82;;;;;;;32.28;100.00;95829.69;5029010;28;20205;-87
2021/07/01 11:03:28;;;;;;;12.63;8.60;;;;;;;32.32;100.00;95830.69;5029200;27;20242;-86
2021/07/01 11:05:56;;;;;;;9.07;8.07;;;;;;;32.40;100.00;95791.88;5028298;28;20260;-87
2021/07/01 11:08:26;;;;;;;11.70;7.95;;;;;;;32.85;100.00;95791.03;5028973;28;20256;-86
2021/07/01 11:10:55;;;;;;;9.80;8.25;;;;;;;32.63;100.00;95787.25;5029107;28;20255;-86
2021/07/01 11:13:25;;;;;;;14.13;10.07;;;;;;;32.76;100.00;95771.94;5029276;28;20207;-87
2021/07/01 11:16:06;;;;;;;16.90;10.40;;;;;;;32.84;100.00;95768.47;5028918;28;20667;-87
2021/07/01 11:18:38;;;;;;;11.27;9.43;;;;;;;33.03;100.00;95786.50;5028954;28;20201;-87
2021/07/01 11:21:07;;;;;;;9.82;8.98;;;;;;;32.84;100.00;95781.28;5029061;27;20255;-86
2021/07/01 11:23:35;;;;;;;12.98;9.55;;;;;;;32.92;100.00;95772.34;5028927;28;20290;-87